createdAt,value
2022-09-14T00:01:24.829Z,14.40
2022-09-14T00:03:54.871Z,14.40
2022-09-14T00:06:22.005Z,14.40
2022-09-14T00:08:53.785Z,14.40
2022-09-14T00:11:23.483Z,14.40
2022-09-14T00:13:50.675Z,14.30
2022-09-14T00:16:23.748Z,14.30
2022-09-14T00:18:53.061Z,14.30
2022-09-14T00:21:20.793Z,14.30
2022-09-14T00:23:48.023Z,14.30
2022-09-14T00:26:17.883Z,14.30
2022-09-14T00:28:48.320Z,14.30
2022-09-14T00:31:16.384Z,14.30
2022-09-14T00:33:44.782Z,14.30
2022-09-14T00:36:15.342Z,14.40
2022-09-14T00:38:42.623Z,14.40
2022-09-14T00:41:14.788Z,14.40
2022-09-14T00:44:00.049Z,14.50
2022-09-14T00:46:29.666Z,14.50
2022-09-14T00:49:02.744Z,14.50
2022-09-14T00:51:33.087Z,14.50
2022-09-14T00:54:04.489Z,14.50
2022-09-14T00:56:31.959Z,14.50
2022-09-14T00:59:02.186Z,14.50
2022-09-14T01:01:29.690Z,14.50
2022-09-14T01:03:57.093Z,14.50
2022-09-14T01:06:46.663Z,14.50
2022-09-14T01:09:35.165Z,14.60
2022-09-14T01:12:27.912Z,14.60
2022-09-14T01:15:36.794Z,14.70
2022-09-14T01:18:24.113Z,14.70
2022-09-14T01:21:00.843Z,14.70
2022-09-14T01:23:47.586Z,14.70
2022-09-14T01:26:26.694Z,14.70
2022-09-14T01:29:05.910Z,14.80
2022-09-14T01:31:52.616Z,14.70
2022-09-14T01:34:44.942Z,14.80
2022-09-14T01:37:16.966Z,14.80
2022-09-14T01:39:48.843Z,14.70
2022-09-14T01:42:18.535Z,14.80
2022-09-14T01:44:50.906Z,14.80
2022-09-14T01:47:31.261Z,14.80
2022-09-14T01:50:06.539Z,14.80
2022-09-14T01:52:48.303Z,14.80
2022-09-14T01:55:31.343Z,15.70
2022-09-14T01:57:58.405Z,14.80
2022-09-14T02:00:26.547Z,14.70
2022-09-14T02:03:11.523Z,14.70
2022-09-14T02:06:00.149Z,14.80
2022-09-14T02:08:29.748Z,14.80
2022-09-14T02:10:58.373Z,14.80
2022-09-14T02:13:26.280Z,14.70
2022-09-14T02:15:53.416Z,14.70
2022-09-14T02:18:21.039Z,14.70
2022-09-14T02:20:53.830Z,14.70
2022-09-14T02:23:21.639Z,14.60
2022-09-14T02:25:48.883Z,14.50
2022-09-14T02:28:16.195Z,14.50
2022-09-14T02:31:11.876Z,14.40
2022-09-14T02:33:54.958Z,14.40
2022-09-14T02:36:33.808Z,14.40
2022-09-14T02:39:33.364Z,14.40
2022-09-14T02:42:21.834Z,14.40
2022-09-14T02:44:49.122Z,14.40
2022-09-14T02:47:55.502Z,14.40
2022-09-14T02:50:35.657Z,14.40
2022-09-14T02:53:27.092Z,14.40
2022-09-14T02:56:01.400Z,14.40
2022-09-14T02:58:40.467Z,14.30
2022-09-14T03:01:10.312Z,14.30
2022-09-14T03:03:37.610Z,14.40
2022-09-14T03:06:05.612Z,14.40
2022-09-14T03:08:33.617Z,14.30
2022-09-14T03:11:00.665Z,14.30
2022-09-14T03:13:27.630Z,14.20
2022-09-14T03:15:54.885Z,14.20
2022-09-14T03:18:21.775Z,14.10
2022-09-14T03:20:48.887Z,14.10
2022-09-14T03:23:15.969Z,14.00
2022-09-14T03:25:44.484Z,14.00
2022-09-14T03:28:12.520Z,14.10
2022-09-14T03:30:39.885Z,14.10
2022-09-14T03:33:06.915Z,14.10
2022-09-14T03:35:33.924Z,14.10
2022-09-14T03:38:03.126Z,14.00
2022-09-14T03:40:30.372Z,14.00
2022-09-14T03:42:57.766Z,14.00
2022-09-14T03:45:25.151Z,14.00
2022-09-14T03:47:52.006Z,14.00
2022-09-14T03:50:19.317Z,13.90
2022-09-14T03:52:47.005Z,13.90
2022-09-14T03:55:13.941Z,13.90
2022-09-14T03:57:40.935Z,13.90
2022-09-14T04:00:09.093Z,13.90
2022-09-14T04:02:36.102Z,13.90
2022-09-14T04:05:03.359Z,13.90
2022-09-14T04:07:30.469Z,13.90
2022-09-14T04:09:57.550Z,13.90
2022-09-14T04:12:24.406Z,13.80
2022-09-14T04:14:51.526Z,13.80
2022-09-14T04:17:18.489Z,13.80
2022-09-14T04:19:45.400Z,13.80
2022-09-14T04:22:12.577Z,13.80
2022-09-14T04:24:39.537Z,13.80
2022-09-14T04:27:06.443Z,13.80
2022-09-14T04:29:33.573Z,13.70
2022-09-14T04:32:00.443Z,13.70
2022-09-14T04:34:27.403Z,13.80
2022-09-14T04:36:54.659Z,13.80
2022-09-14T04:39:22.369Z,13.90
2022-09-14T04:41:49.671Z,13.90
2022-09-14T04:44:16.798Z,13.90
2022-09-14T04:46:46.860Z,13.90
2022-09-14T04:49:16.561Z,13.90
2022-09-14T04:51:43.712Z,13.90
2022-09-14T04:54:17.614Z,13.80
2022-09-14T04:56:45.403Z,13.80
2022-09-14T04:59:12.399Z,13.70
2022-09-14T05:01:42.068Z,13.70
2022-09-14T05:04:10.324Z,13.80
2022-09-14T05:06:39.220Z,13.80
2022-09-14T05:09:09.941Z,13.90
2022-09-14T05:11:37.755Z,13.90
2022-09-14T05:14:05.326Z,14.10
2022-09-14T05:16:35.072Z,14.20
2022-09-14T05:19:04.773Z,14.20
2022-09-14T05:21:33.469Z,14.30
2022-09-14T05:24:02.989Z,14.30
2022-09-14T05:26:31.743Z,14.30
2022-09-14T05:29:01.367Z,14.40
2022-09-14T05:31:30.128Z,14.40
2022-09-14T05:33:58.015Z,14.40
2022-09-14T05:36:25.404Z,14.40
2022-09-14T05:38:52.398Z,14.40
2022-09-14T05:41:19.560Z,14.40
2022-09-14T05:43:46.532Z,14.40
2022-09-14T05:46:15.755Z,14.50
2022-09-14T05:48:44.025Z,14.50
2022-09-14T05:51:16.924Z,14.50
2022-09-14T05:53:54.366Z,14.50
2022-09-14T05:56:23.862Z,14.60
2022-09-14T05:58:51.433Z,14.60
2022-09-14T06:01:24.819Z,14.60
2022-09-14T06:03:56.821Z,14.60
2022-09-14T06:06:24.383Z,14.60
2022-09-14T06:08:53.753Z,14.60
2022-09-14T06:11:29.602Z,14.80
2022-09-14T06:13:56.924Z,15.00
2022-09-14T06:16:25.790Z,15.20
2022-09-14T06:18:55.054Z,15.20
2022-09-14T06:21:22.343Z,15.30
2022-09-14T06:23:50.969Z,15.50
2022-09-14T06:26:18.096Z,15.60
2022-09-14T06:28:45.232Z,16.20
2022-09-14T06:31:14.360Z,17.00
2022-09-14T06:33:45.657Z,17.20
2022-09-14T06:36:15.356Z,17.50
2022-09-14T06:38:43.469Z,17.60
2022-09-14T06:41:13.309Z,18.20
2022-09-14T06:43:41.929Z,18.30
2022-09-14T06:46:21.739Z,18.40
2022-09-14T06:48:55.583Z,18.30
2022-09-14T06:51:25.691Z,18.60
2022-09-14T06:53:53.970Z,19.10
2022-09-14T06:56:21.385Z,19.40
2022-09-14T06:58:49.939Z,19.80
2022-09-14T07:01:19.831Z,20.30
2022-09-14T07:03:47.899Z,20.50
2022-09-14T07:06:17.763Z,20.40
2022-09-14T07:08:45.155Z,19.70
2022-09-14T07:11:13.885Z,19.70
2022-09-14T07:13:41.240Z,20.70
2022-09-14T07:16:08.368Z,21.60
2022-09-14T07:18:36.380Z,21.80
2022-09-14T07:21:22.442Z,22.70
2022-09-14T07:23:49.679Z,24.10
2022-09-14T07:26:23.494Z,24.00
2022-09-14T07:29:02.411Z,23.70
2022-09-14T07:31:33.611Z,23.60
2022-09-14T07:34:03.367Z,23.40
2022-09-14T07:36:34.811Z,22.50
2022-09-14T07:39:04.747Z,23.10
2022-09-14T07:41:34.331Z,23.30
2022-09-14T07:44:03.286Z,22.70
2022-09-14T07:46:35.269Z,22.20
2022-09-14T07:49:04.928Z,22.10
2022-09-14T07:51:33.336Z,23.70
2022-09-14T07:54:01.693Z,26.10
2022-09-14T07:56:29.240Z,27.70
2022-09-14T07:59:17.298Z,28.20
2022-09-14T08:01:47.009Z,28.30
2022-09-14T08:04:14.065Z,27.60
2022-09-14T08:06:41.093Z,26.60
2022-09-14T08:09:08.959Z,25.60
2022-09-14T08:11:36.985Z,26.70
2022-09-14T08:14:12.036Z,27.90
2022-09-14T08:16:40.545Z,28.10
2022-09-14T08:19:13.141Z,26.70
2022-09-14T08:21:45.571Z,25.70
2022-09-14T08:24:15.911Z,25.00
2022-09-14T08:26:43.029Z,25.00
2022-09-14T08:29:09.923Z,25.60
2022-09-14T08:31:39.029Z,26.30
2022-09-14T08:34:07.283Z,26.30
2022-09-14T08:36:37.344Z,25.70
2022-09-14T08:39:09.069Z,25.00
2022-09-14T08:42:11.650Z,25.10
2022-09-14T08:45:07.490Z,25.60
2022-09-14T08:47:38.987Z,26.70
2022-09-14T08:50:14.906Z,26.80
2022-09-14T08:52:47.731Z,25.80
2022-09-14T08:55:43.068Z,25.20
2022-09-14T08:58:10.409Z,26.40
2022-09-14T09:00:44.061Z,27.00
2022-09-14T09:03:20.066Z,26.70
2022-09-14T09:05:50.016Z,25.70
2022-09-14T09:08:36.975Z,24.50
2022-09-14T09:11:07.993Z,24.50
2022-09-14T09:13:38.361Z,24.20
2022-09-14T09:16:09.251Z,23.70
2022-09-14T09:18:59.119Z,23.40
2022-09-14T09:21:30.562Z,22.90
2022-09-14T09:24:25.839Z,24.70
2022-09-14T09:26:52.919Z,23.90
2022-09-14T09:29:20.081Z,22.50
2022-09-14T09:31:51.898Z,21.30
2022-09-14T09:34:26.981Z,20.40
2022-09-14T09:36:56.004Z,20.20
2022-09-14T09:39:26.083Z,20.10
2022-09-14T09:42:01.882Z,19.90
2022-09-14T09:44:29.275Z,20.20
2022-09-14T09:46:59.634Z,20.30
2022-09-14T09:49:30.849Z,22.40
2022-09-14T09:52:10.990Z,25.70
2022-09-14T09:54:41.207Z,26.90
2022-09-14T09:57:23.289Z,26.00
2022-09-14T09:59:50.448Z,24.50
2022-09-14T10:02:26.214Z,23.00
2022-09-14T10:05:10.069Z,21.90
2022-09-14T10:07:41.686Z,21.20
2022-09-14T10:10:11.965Z,20.70
2022-09-14T10:12:46.223Z,20.30
2022-09-14T10:15:22.208Z,20.20
2022-09-14T10:18:15.234Z,20.10
2022-09-14T10:20:52.979Z,19.90
2022-09-14T10:23:20.069Z,19.80
2022-09-14T10:25:52.518Z,19.70
2022-09-14T10:28:32.812Z,19.80
2022-09-14T10:31:14.537Z,19.90
2022-09-14T10:33:42.147Z,20.00
2022-09-14T10:36:30.986Z,20.00
2022-09-14T10:39:26.264Z,20.10
2022-09-14T10:42:19.418Z,20.20
2022-09-14T10:45:14.968Z,20.60
2022-09-14T10:48:10.974Z,20.70
2022-09-14T10:50:47.219Z,20.80
2022-09-14T10:53:29.443Z,20.70
2022-09-14T10:56:05.947Z,20.60
2022-09-14T10:58:54.196Z,20.40
2022-09-14T11:01:40.088Z,20.30
2022-09-14T11:04:10.010Z,20.40
2022-09-14T11:06:55.974Z,20.40
2022-09-14T11:09:30.224Z,20.30
2022-09-14T11:12:24.857Z,20.10
2022-09-14T11:15:06.976Z,19.90
2022-09-14T11:17:42.839Z,19.80
2022-09-14T11:20:42.902Z,19.80
2022-09-14T11:23:38.203Z,19.80
2022-09-14T11:26:33.641Z,19.80
2022-09-14T11:29:19.030Z,19.90
2022-09-14T11:32:16.912Z,19.80
2022-09-14T11:34:43.790Z,19.60
2022-09-14T11:37:15.495Z,19.70
2022-09-14T11:39:47.484Z,19.80
2022-09-14T11:42:22.594Z,19.60
2022-09-14T11:44:58.145Z,19.70
2022-09-14T11:47:26.320Z,19.80
2022-09-14T11:50:02.265Z,20.00
2022-09-14T11:52:32.484Z,20.30
2022-09-14T11:55:02.069Z,20.50
2022-09-14T11:57:31.179Z,20.70
2022-09-14T12:00:06.636Z,21.10
2022-09-14T12:02:36.562Z,21.20
2022-09-14T12:05:10.465Z,21.40
2022-09-14T12:07:43.166Z,21.30
2022-09-14T12:10:16.345Z,21.10
2022-09-14T12:12:49.294Z,20.90
2022-09-14T12:15:26.072Z,20.70
2022-09-14T12:18:06.157Z,20.60
2022-09-14T12:20:52.868Z,20.30
2022-09-14T12:23:26.610Z,20.30
2022-09-14T12:26:19.908Z,20.20
2022-09-14T12:28:53.722Z,20.20
2022-09-14T12:31:31.955Z,20.30
2022-09-14T12:34:17.301Z,20.40
2022-09-14T12:36:44.304Z,20.40
2022-09-14T12:39:20.948Z,20.50
2022-09-14T12:41:48.294Z,20.60
2022-09-14T12:44:36.681Z,21.00
2022-09-14T12:47:25.838Z,21.10
2022-09-14T12:49:54.868Z,21.30
2022-09-14T12:53:00.619Z,21.30
2022-09-14T12:55:57.203Z,21.20
2022-09-14T12:58:38.873Z,21.30
2022-09-14T13:01:21.290Z,21.30
2022-09-14T13:03:56.734Z,21.30
2022-09-14T13:06:34.965Z,21.20
2022-09-14T13:09:06.312Z,21.10
2022-09-14T13:11:40.215Z,21.10
2022-09-14T13:14:18.939Z,20.90
2022-09-14T13:16:49.546Z,20.80
2022-09-14T13:19:42.897Z,20.80
2022-09-14T13:22:22.215Z,20.70
2022-09-14T13:24:50.115Z,20.80
2022-09-14T13:27:34.842Z,20.70
2022-09-14T13:30:17.861Z,20.80
2022-09-14T13:32:49.649Z,20.80
2022-09-14T13:35:20.117Z,20.70
2022-09-14T13:37:48.513Z,20.60
2022-09-14T13:40:15.637Z,20.50
2022-09-14T13:42:43.335Z,20.50
2022-09-14T13:45:13.368Z,20.50
2022-09-14T13:47:40.749Z,20.40
2022-09-14T13:50:08.675Z,20.40
2022-09-14T13:55:24.732Z,20.40
2022-09-14T13:58:09.790Z,20.40
2022-09-14T14:00:57.029Z,20.40
2022-09-14T14:03:39.334Z,20.40
2022-09-14T14:06:23.896Z,20.30
2022-09-14T14:09:04.867Z,20.20
2022-09-14T14:11:31.873Z,20.20
2022-09-14T14:14:19.173Z,20.10
2022-09-14T14:17:24.731Z,20.10
2022-09-14T14:19:53.761Z,20.10
2022-09-14T14:22:28.360Z,20.30
2022-09-14T14:25:13.283Z,20.30
2022-09-14T14:27:44.680Z,20.10
2022-09-14T14:30:20.466Z,20.10
2022-09-14T14:32:52.094Z,20.00
2022-09-14T14:35:39.438Z,20.00
2022-09-14T14:38:06.788Z,19.90
2022-09-14T14:40:34.950Z,19.90
2022-09-14T14:43:04.205Z,19.80
2022-09-14T14:45:36.220Z,19.80
2022-09-14T14:48:03.986Z,19.70
2022-09-14T14:50:34.223Z,19.80
2022-09-14T14:53:02.272Z,19.80
2022-09-14T14:55:32.969Z,19.60
2022-09-14T14:58:02.901Z,19.60
2022-09-14T15:00:35.377Z,19.50
2022-09-14T15:03:02.998Z,19.40
2022-09-14T15:05:31.102Z,19.40
2022-09-14T15:07:58.796Z,19.30
2022-09-14T15:10:27.643Z,19.20
2022-09-14T15:12:54.825Z,19.10
2022-09-14T15:15:25.120Z,19.00
2022-09-14T15:17:53.233Z,18.90
2022-09-14T15:20:20.798Z,18.90
2022-09-14T15:22:48.576Z,17.20
2022-09-14T15:25:17.835Z,18.80
2022-09-14T15:27:45.138Z,18.80
2022-09-14T15:30:13.556Z,18.80
2022-09-14T15:32:40.793Z,18.70
2022-09-14T15:35:10.467Z,18.60
2022-09-14T15:37:37.599Z,18.50
2022-09-14T15:40:05.159Z,18.40
2022-09-14T15:42:32.090Z,18.30
2022-09-14T15:44:59.282Z,18.30
2022-09-14T15:47:26.235Z,18.20
2022-09-14T15:49:54.339Z,18.10
2022-09-14T15:52:21.725Z,18.10
2022-09-14T15:54:49.260Z,18.00
2022-09-14T15:57:16.258Z,17.90
2022-09-14T15:59:43.383Z,17.90
2022-09-14T16:02:12.485Z,17.80
2022-09-14T16:04:39.674Z,17.80
2022-09-14T16:07:09.982Z,17.70
2022-09-14T16:09:38.850Z,17.60
2022-09-14T16:12:06.796Z,17.60
2022-09-14T16:14:34.335Z,17.50
2022-09-14T16:17:01.743Z,17.40
2022-09-14T16:19:29.112Z,17.30
2022-09-14T16:21:56.366Z,17.20
2022-09-14T16:24:25.261Z,17.10
2022-09-14T16:26:53.153Z,17.00
2022-09-14T16:29:24.086Z,17.00
2022-09-14T16:31:52.245Z,16.90
2022-09-14T16:34:28.083Z,16.80
2022-09-14T16:36:56.617Z,16.70
2022-09-14T16:39:25.615Z,16.60
2022-09-14T16:41:56.952Z,16.60
2022-09-14T16:44:27.827Z,16.50
2022-09-14T16:46:58.727Z,16.50
2022-09-14T16:49:28.168Z,16.40
2022-09-14T16:51:57.237Z,16.30
2022-09-14T16:54:25.714Z,16.30
2022-09-14T16:56:58.101Z,16.20
2022-09-14T16:59:25.668Z,16.10
2022-09-14T17:01:54.978Z,16.10
2022-09-14T17:04:24.348Z,15.90
2022-09-14T17:06:52.264Z,15.80
2022-09-14T17:09:22.099Z,15.80
2022-09-14T17:11:49.245Z,15.70
2022-09-14T17:14:20.707Z,15.60
2022-09-14T17:16:48.211Z,15.60
2022-09-14T17:19:16.660Z,15.50
2022-09-14T17:21:45.133Z,15.50
2022-09-14T17:24:13.981Z,15.50
2022-09-14T17:26:42.597Z,15.40
2022-09-14T17:29:10.132Z,15.40
2022-09-14T17:31:39.669Z,15.40
2022-09-14T17:34:09.203Z,15.30
2022-09-14T17:36:36.466Z,15.30
2022-09-14T17:39:09.249Z,15.20
2022-09-14T17:41:39.079Z,15.20
2022-09-14T17:44:07.355Z,15.20
2022-09-14T17:46:36.005Z,15.20
2022-09-14T17:49:05.953Z,15.10
2022-09-14T17:51:34.267Z,15.10
2022-09-14T17:54:01.982Z,15.10
2022-09-14T17:56:30.188Z,15.10
2022-09-14T17:59:04.698Z,15.20
2022-09-14T18:01:32.547Z,15.00
2022-09-14T18:04:03.972Z,15.10
2022-09-14T18:06:34.523Z,15.00
2022-09-14T18:09:04.779Z,15.00
2022-09-14T18:11:32.546Z,14.90
2022-09-14T18:13:59.943Z,14.90
2022-09-14T18:16:27.934Z,14.90
2022-09-14T18:18:57.612Z,14.90
2022-09-14T18:21:25.403Z,14.90
2022-09-14T18:23:54.016Z,14.80
2022-09-14T18:26:22.575Z,14.80
2022-09-14T18:28:51.100Z,14.70
2022-09-14T18:31:19.895Z,14.80
2022-09-14T18:34:01.646Z,14.70
2022-09-14T18:36:32.031Z,14.80
2022-09-14T18:38:59.258Z,14.70
2022-09-14T18:41:31.416Z,14.70
2022-09-14T18:43:59.033Z,14.70
2022-09-14T18:46:28.368Z,14.60
2022-09-14T18:48:58.297Z,14.60
2022-09-14T18:51:27.333Z,14.60
2022-09-14T18:54:03.723Z,14.60
2022-09-14T18:56:33.513Z,14.60
2022-09-14T18:59:01.836Z,14.50
2022-09-14T19:01:29.074Z,14.60
2022-09-14T19:03:56.611Z,14.50
2022-09-14T19:06:23.586Z,14.50
2022-09-14T19:08:50.755Z,14.50
2022-09-14T19:11:23.259Z,14.50
2022-09-14T19:13:59.761Z,14.50
2022-09-14T19:16:27.249Z,14.50
2022-09-14T19:18:54.618Z,14.50
2022-09-14T19:21:27.877Z,14.50
2022-09-14T19:24:03.605Z,14.50
2022-09-14T19:26:33.356Z,14.50
2022-09-14T19:29:02.167Z,14.50
2022-09-14T19:31:30.881Z,14.50
2022-09-14T19:34:02.170Z,14.60
2022-09-14T19:36:30.121Z,14.50
2022-09-14T19:39:01.631Z,14.50
2022-09-14T19:41:29.963Z,14.50
2022-09-14T19:43:57.426Z,14.50
2022-09-14T19:46:24.603Z,14.50
2022-09-14T19:48:52.607Z,14.40
2022-09-14T19:51:22.849Z,14.40
2022-09-14T19:53:52.215Z,14.40
2022-09-14T19:56:25.485Z,14.40
2022-09-14T19:58:54.403Z,14.40
2022-09-14T20:01:22.891Z,14.40
2022-09-14T20:03:50.259Z,14.30
2022-09-14T20:06:22.683Z,14.30
2022-09-14T20:08:56.034Z,14.30
2022-09-14T20:11:25.896Z,14.30
2022-09-14T20:13:57.513Z,14.20
2022-09-14T20:16:27.863Z,14.30
2022-09-14T20:18:56.514Z,14.30
2022-09-14T20:21:26.211Z,14.20
2022-09-14T20:24:14.516Z,14.30
2022-09-14T20:26:42.593Z,14.30
2022-09-14T20:29:09.954Z,14.20
2022-09-14T20:31:36.940Z,14.20
2022-09-14T20:34:04.440Z,14.30
2022-09-14T20:36:32.420Z,14.30
2022-09-14T20:38:59.944Z,14.30
2022-09-14T20:41:35.961Z,14.30
2022-09-14T20:44:04.032Z,14.30
2022-09-14T20:46:38.549Z,14.30
2022-09-14T20:49:08.663Z,14.40
2022-09-14T20:51:36.738Z,14.40
2022-09-14T20:54:04.974Z,14.50
2022-09-14T20:56:34.628Z,14.40
2022-09-14T20:59:04.223Z,14.40
2022-09-14T21:01:36.537Z,14.30
2022-09-14T21:04:15.623Z,14.30
2022-09-14T21:06:47.138Z,14.30
2022-09-14T21:09:15.973Z,14.30
2022-09-14T21:11:45.758Z,14.30
2022-09-14T21:14:15.380Z,14.30
2022-09-14T21:16:45.983Z,14.30
2022-09-14T21:19:16.070Z,14.30
2022-09-14T21:21:43.902Z,14.30
2022-09-14T21:24:13.548Z,14.30
2022-09-14T21:26:42.872Z,14.30
2022-09-14T21:29:20.328Z,14.30
2022-09-14T21:31:48.667Z,14.30
2022-09-14T21:34:16.012Z,14.30
2022-09-14T21:36:49.201Z,14.30
2022-09-14T21:39:23.556Z,14.30
2022-09-14T21:41:58.784Z,14.20
2022-09-14T21:44:34.966Z,14.20
2022-09-14T21:47:03.004Z,14.20
2022-09-14T21:49:30.761Z,14.10
2022-09-14T21:51:57.650Z,14.10
2022-09-14T21:54:24.912Z,14.10
2022-09-14T21:56:52.843Z,14.00
2022-09-14T21:59:21.083Z,14.00
2022-09-14T22:01:48.941Z,14.00
2022-09-14T22:04:21.417Z,14.00
2022-09-14T22:06:48.790Z,14.00
2022-09-14T22:09:17.618Z,14.00
2022-09-14T22:11:45.178Z,13.90
2022-09-14T22:14:14.894Z,13.90
2022-09-14T22:16:42.665Z,14.00
2022-09-14T22:19:20.430Z,13.90
2022-09-14T22:21:47.967Z,14.00
2022-09-14T22:24:19.488Z,13.90
2022-09-14T22:26:46.781Z,13.90
2022-09-14T22:29:14.737Z,13.90
2022-09-14T22:31:43.988Z,13.80
2022-09-14T22:34:11.541Z,13.80
2022-09-14T22:36:40.219Z,13.80
2022-09-14T22:39:09.193Z,13.80
2022-09-14T22:41:37.199Z,13.80
2022-09-14T22:44:05.272Z,13.80
2022-09-14T22:46:33.500Z,13.80
2022-09-14T22:49:00.464Z,13.80
2022-09-14T22:51:29.038Z,13.80
2022-09-14T22:53:56.757Z,13.80
2022-09-14T22:56:26.679Z,13.80
2022-09-14T22:58:53.788Z,13.80
2022-09-14T23:01:23.803Z,13.80
2022-09-14T23:03:58.609Z,13.80
2022-09-14T23:06:30.887Z,13.70
2022-09-14T23:08:58.668Z,13.70
2022-09-14T23:11:25.851Z,13.70
2022-09-14T23:13:53.976Z,13.70
2022-09-14T23:16:26.146Z,13.70
2022-09-14T23:18:58.630Z,13.70
2022-09-14T23:21:26.528Z,13.80
2022-09-14T23:23:55.410Z,13.80
2022-09-14T23:26:23.006Z,13.90
2022-09-14T23:28:55.735Z,14.00
2022-09-14T23:31:23.454Z,14.10
2022-09-14T23:33:52.770Z,14.10
2022-09-14T23:36:22.154Z,14.10
2022-09-14T23:38:49.917Z,14.20
2022-09-14T23:41:18.602Z,14.20
2022-09-14T23:43:45.523Z,14.20
2022-09-14T23:46:12.843Z,14.20
2022-09-14T23:48:40.399Z,14.20
2022-09-14T23:51:09.024Z,14.20
2022-09-14T23:53:36.380Z,14.20
2022-09-14T23:56:04.014Z,14.20
2022-09-14T23:58:31.073Z,14.20
